sensor_id;sensor_type;location;lat;lon;timestamp;P1;durP1;ratioP1;P2;durP2;ratioP2
7295;SDS011;40758;54.038;11.684;2022-11-18T00:01:53;10.05;;;5.32;;
7295;SDS011;40758;54.038;11.684;2022-11-18T00:04:22;8.40;;;4.03;;
7295;SDS011;40758;54.038;11.684;2022-11-18T00:06:50;2.72;;;2.03;;
7295;SDS011;40758;54.038;11.684;2022-11-18T00:09:19;13.32;;;5.75;;
7295;SDS011;40758;54.038;11.684;2022-11-18T00:11:48;7.35;;;3.80;;
7295;SDS011;40758;54.038;11.684;2022-11-18T00:14:36;8.68;;;6.72;;
7295;SDS011;40758;54.038;11.684;2022-11-18T00:17:05;8.23;;;3.65;;
7295;SDS011;40758;54.038;11.684;2022-11-18T00:19:35;18.27;;;7.40;;
7295;SDS011;40758;54.038;11.684;2022-11-18T00:22:08;16.95;;;6.25;;
7295;SDS011;40758;54.038;11.684;2022-11-18T00:24:40;7.25;;;2.97;;
7295;SDS011;40758;54.038;11.684;2022-11-18T00:27:08;7.05;;;3.60;;
7295;SDS011;40758;54.038;11.684;2022-11-18T00:29:38;12.13;;;5.10;;
7295;SDS011;40758;54.038;11.684;2022-11-18T00:32:07;1.90;;;1.80;;
7295;SDS011;40758;54.038;11.684;2022-11-18T00:34:36;1.92;;;1.80;;
7295;SDS011;40758;54.038;11.684;2022-11-18T00:37:04;5.75;;;2.78;;
7295;SDS011;40758;54.038;11.684;2022-11-18T00:39:33;5.40;;;4.55;;
7295;SDS011;40758;54.038;11.684;2022-11-18T00:42:02;19.30;;;5.97;;
7295;SDS011;40758;54.038;11.684;2022-11-18T00:44:50;10.55;;;3.78;;
7295;SDS011;40758;54.038;11.684;2022-11-18T00:47:18;14.38;;;7.25;;
7295;SDS011;40758;54.038;11.684;2022-11-18T00:49:47;3.65;;;2.63;;
7295;SDS011;40758;54.038;11.684;2022-11-18T00:52:16;6.60;;;3.03;;
7295;SDS011;40758;54.038;11.684;2022-11-18T00:54:44;8.52;;;4.57;;
7295;SDS011;40758;54.038;11.684;2022-11-18T00:57:13;5.43;;;2.13;;
7295;SDS011;40758;54.038;11.684;2022-11-18T00:59:42;5.18;;;2.78;;
7295;SDS011;40758;54.038;11.684;2022-11-18T01:02:12;11.20;;;5.32;;
7295;SDS011;40758;54.038;11.684;2022-11-18T01:04:41;9.00;;;5.43;;
7295;SDS011;40758;54.038;11.684;2022-11-18T01:07:09;5.60;;;3.78;;
7295;SDS011;40758;54.038;11.684;2022-11-18T01:09:38;18.25;;;7.63;;
7295;SDS011;40758;54.038;11.684;2022-11-18T01:12:08;5.22;;;2.75;;
7295;SDS011;40758;54.038;11.684;2022-11-18T01:14:55;6.10;;;2.78;;
7295;SDS011;40758;54.038;11.684;2022-11-18T01:17:29;3.70;;;2.00;;
7295;SDS011;40758;54.038;11.684;2022-11-18T01:19:58;7.68;;;3.65;;
7295;SDS011;40758;54.038;11.684;2022-11-18T01:22:27;21.20;;;9.50;;
7295;SDS011;40758;54.038;11.684;2022-11-18T01:24:56;10.73;;;5.20;;
7295;SDS011;40758;54.038;11.684;2022-11-18T01:27:24;8.82;;;5.13;;
7295;SDS011;40758;54.038;11.684;2022-11-18T01:29:53;12.50;;;6.10;;
7295;SDS011;40758;54.038;11.684;2022-11-18T01:32:21;6.32;;;5.03;;
7295;SDS011;40758;54.038;11.684;2022-11-18T01:34:52;2.67;;;2.20;;
7295;SDS011;40758;54.038;11.684;2022-11-18T01:37:21;6.63;;;3.53;;
7295;SDS011;40758;54.038;11.684;2022-11-18T01:39:50;3.70;;;1.95;;
7295;SDS011;40758;54.038;11.684;2022-11-18T01:42:18;6.65;;;3.70;;
7295;SDS011;40758;54.038;11.684;2022-11-18T01:44:57;11.60;;;5.32;;
7295;SDS011;40758;54.038;11.684;2022-11-18T01:47:43;9.98;;;5.30;;
7295;SDS011;40758;54.038;11.684;2022-11-18T01:50:22;10.80;;;4.75;;
7295;SDS011;40758;54.038;11.684;2022-11-18T01:52:53;9.93;;;4.82;;
7295;SDS011;40758;54.038;11.684;2022-11-18T01:55:29;4.82;;;3.10;;
7295;SDS011;40758;54.038;11.684;2022-11-18T01:58:03;3.47;;;2.83;;
7295;SDS011;40758;54.038;11.684;2022-11-18T02:00:39;2.40;;;1.38;;
7295;SDS011;40758;54.038;11.684;2022-11-18T02:03:08;4.18;;;2.65;;
7295;SDS011;40758;54.038;11.684;2022-11-18T02:05:38;3.42;;;3.15;;
7295;SDS011;40758;54.038;11.684;2022-11-18T02:08:10;7.40;;;4.80;;
7295;SDS011;40758;54.038;11.684;2022-11-18T02:10:40;10.77;;;5.00;;
7295;SDS011;40758;54.038;11.684;2022-11-18T02:13:09;8.70;;;4.68;;
7295;SDS011;40758;54.038;11.684;2022-11-18T02:15:43;16.73;;;4.47;;
7295;SDS011;40758;54.038;11.684;2022-11-18T02:18:27;5.85;;;4.05;;
7295;SDS011;40758;54.038;11.684;2022-11-18T02:21:14;5.70;;;3.65;;
7295;SDS011;40758;54.038;11.684;2022-11-18T02:24:13;2.83;;;2.13;;
7295;SDS011;40758;54.038;11.684;2022-11-18T02:27:20;11.00;;;5.30;;
7295;SDS011;40758;54.038;11.684;2022-11-18T02:30:31;8.90;;;4.57;;
7295;SDS011;40758;54.038;11.684;2022-11-18T02:33:11;0.65;;;0.65;;
7295;SDS011;40758;54.038;11.684;2022-11-18T02:35:50;5.35;;;4.82;;
7295;SDS011;40758;54.038;11.684;2022-11-18T02:38:30;5.63;;;3.80;;
7295;SDS011;40758;54.038;11.684;2022-11-18T02:41:07;4.72;;;3.92;;
7295;SDS011;40758;54.038;11.684;2022-11-18T02:43:43;4.00;;;1.90;;
7295;SDS011;40758;54.038;11.684;2022-11-18T02:46:23;7.75;;;3.17;;
7295;SDS011;40758;54.038;11.684;2022-11-18T02:48:56;0.82;;;0.60;;
7295;SDS011;40758;54.038;11.684;2022-11-18T02:51:26;7.45;;;4.75;;
7295;SDS011;40758;54.038;11.684;2022-11-18T02:53:59;6.45;;;3.97;;
7295;SDS011;40758;54.038;11.684;2022-11-18T02:56:33;5.28;;;2.90;;
7295;SDS011;40758;54.038;11.684;2022-11-18T02:59:03;5.65;;;2.80;;
7295;SDS011;40758;54.038;11.684;2022-11-18T03:01:34;8.00;;;3.97;;
7295;SDS011;40758;54.038;11.684;2022-11-18T03:04:03;6.00;;;3.30;;
7295;SDS011;40758;54.038;11.684;2022-11-18T03:06:32;11.15;;;4.60;;
7295;SDS011;40758;54.038;11.684;2022-11-18T03:09:07;8.30;;;2.67;;
7295;SDS011;40758;54.038;11.684;2022-11-18T03:11:44;3.78;;;1.95;;
7295;SDS011;40758;54.038;11.684;2022-11-18T03:14:25;4.70;;;2.05;;
7295;SDS011;40758;54.038;11.684;2022-11-18T03:17:07;8.57;;;3.35;;
7295;SDS011;40758;54.038;11.684;2022-11-18T03:19:47;1.65;;;0.93;;
7295;SDS011;40758;54.038;11.684;2022-11-18T03:22:31;1.55;;;1.42;;
7295;SDS011;40758;54.038;11.684;2022-11-18T03:25:07;3.67;;;3.13;;
7295;SDS011;40758;54.038;11.684;2022-11-18T03:27:46;6.05;;;2.65;;
7295;SDS011;40758;54.038;11.684;2022-11-18T03:30:23;2.22;;;2.10;;
7295;SDS011;40758;54.038;11.684;2022-11-18T03:32:57;3.10;;;1.83;;
7295;SDS011;40758;54.038;11.684;2022-11-18T03:35:33;1.95;;;1.48;;
7295;SDS011;40758;54.038;11.684;2022-11-18T03:38:09;2.85;;;0.98;;
7295;SDS011;40758;54.038;11.684;2022-11-18T03:40:45;5.75;;;2.97;;
7295;SDS011;40758;54.038;11.684;2022-11-18T03:43:20;6.32;;;2.90;;
7295;SDS011;40758;54.038;11.684;2022-11-18T03:45:55;3.70;;;2.83;;
7295;SDS011;40758;54.038;11.684;2022-11-18T03:48:33;2.88;;;2.00;;
7295;SDS011;40758;54.038;11.684;2022-11-18T03:51:09;8.32;;;3.80;;
7295;SDS011;40758;54.038;11.684;2022-11-18T03:53:46;10.00;;;4.93;;
7295;SDS011;40758;54.038;11.684;2022-11-18T03:56:25;9.10;;;5.75;;
7295;SDS011;40758;54.038;11.684;2022-11-18T03:58:59;2.05;;;1.55;;
7295;SDS011;40758;54.038;11.684;2022-11-18T04:01:37;2.90;;;2.70;;
7295;SDS011;40758;54.038;11.684;2022-11-18T04:04:14;2.42;;;2.20;;
7295;SDS011;40758;54.038;11.684;2022-11-18T04:06:44;1.13;;;1.08;;
7295;SDS011;40758;54.038;11.684;2022-11-18T04:09:17;3.53;;;1.77;;
7295;SDS011;40758;54.038;11.684;2022-11-18T04:11:54;1.25;;;1.15;;
7295;SDS011;40758;54.038;11.684;2022-11-18T04:14:29;4.25;;;1.25;;
7295;SDS011;40758;54.038;11.684;2022-11-18T04:17:04;2.70;;;1.27;;
7295;SDS011;40758;54.038;11.684;2022-11-18T04:19:37;2.10;;;1.80;;
7295;SDS011;40758;54.038;11.684;2022-11-18T04:22:06;8.73;;;3.03;;
7295;SDS011;40758;54.038;11.684;2022-11-18T04:24:36;2.42;;;1.63;;
7295;SDS011;40758;54.038;11.684;2022-11-18T04:27:06;6.72;;;2.80;;
7295;SDS011;40758;54.038;11.684;2022-11-18T04:29:35;2.47;;;2.28;;
7295;SDS011;40758;54.038;11.684;2022-11-18T04:32:04;2.47;;;1.60;;
7295;SDS011;40758;54.038;11.684;2022-11-18T04:34:32;2.10;;;1.75;;
7295;SDS011;40758;54.038;11.684;2022-11-18T04:37:02;0.98;;;0.98;;
7295;SDS011;40758;54.038;11.684;2022-11-18T04:39:31;5.47;;;2.50;;
7295;SDS011;40758;54.038;11.684;2022-11-18T04:42:00;11.38;;;3.58;;
7295;SDS011;40758;54.038;11.684;2022-11-18T04:44:29;5.50;;;1.80;;
7295;SDS011;40758;54.038;11.684;2022-11-18T04:47:03;5.45;;;2.83;;
7295;SDS011;40758;54.038;11.684;2022-11-18T04:49:33;4.35;;;3.45;;
7295;SDS011;40758;54.038;11.684;2022-11-18T04:52:04;8.75;;;3.00;;
7295;SDS011;40758;54.038;11.684;2022-11-18T04:54:33;4.80;;;3.83;;
7295;SDS011;40758;54.038;11.684;2022-11-18T04:57:02;8.52;;;3.20;;
7295;SDS011;40758;54.038;11.684;2022-11-18T04:59:31;1.73;;;0.98;;
7295;SDS011;40758;54.038;11.684;2022-11-18T05:01:59;8.02;;;3.88;;
7295;SDS011;40758;54.038;11.684;2022-11-18T05:04:29;13.93;;;3.47;;
7295;SDS011;40758;54.038;11.684;2022-11-18T05:07:00;1.55;;;1.55;;
7295;SDS011;40758;54.038;11.684;2022-11-18T05:09:33;8.55;;;4.72;;
7295;SDS011;40758;54.038;11.684;2022-11-18T05:12:02;0.70;;;0.47;;
7295;SDS011;40758;54.038;11.684;2022-11-18T05:14:48;4.55;;;2.83;;
7295;SDS011;40758;54.038;11.684;2022-11-18T05:17:18;15.95;;;7.13;;
7295;SDS011;40758;54.038;11.684;2022-11-18T05:19:46;2.63;;;1.35;;
7295;SDS011;40758;54.038;11.684;2022-11-18T05:22:17;6.55;;;2.80;;
7295;SDS011;40758;54.038;11.684;2022-11-18T05:24:46;9.57;;;4.28;;
7295;SDS011;40758;54.038;11.684;2022-11-18T05:27:16;1.90;;;1.10;;
7295;SDS011;40758;54.038;11.684;2022-11-18T05:29:44;16.60;;;5.63;;
7295;SDS011;40758;54.038;11.684;2022-11-18T05:32:14;5.00;;;4.32;;
7295;SDS011;40758;54.038;11.684;2022-11-18T05:34:44;6.28;;;2.95;;
7295;SDS011;40758;54.038;11.684;2022-11-18T05:37:12;11.70;;;6.10;;
7295;SDS011;40758;54.038;11.684;2022-11-18T05:39:42;7.10;;;4.07;;
7295;SDS011;40758;54.038;11.684;2022-11-18T05:42:11;2.83;;;1.77;;
7295;SDS011;40758;54.038;11.684;2022-11-18T05:44:58;1.33;;;1.23;;
7295;SDS011;40758;54.038;11.684;2022-11-18T05:47:27;3.70;;;3.10;;
7295;SDS011;40758;54.038;11.684;2022-11-18T05:50:16;2.40;;;2.20;;
7295;SDS011;40758;54.038;11.684;2022-11-18T05:52:46;8.27;;;5.15;;
7295;SDS011;40758;54.038;11.684;2022-11-18T05:55:17;5.50;;;2.38;;
7295;SDS011;40758;54.038;11.684;2022-11-18T05:57:51;7.38;;;4.18;;
7295;SDS011;40758;54.038;11.684;2022-11-18T06:00:20;9.88;;;4.75;;
7295;SDS011;40758;54.038;11.684;2022-11-18T06:02:49;3.97;;;2.40;;
7295;SDS011;40758;54.038;11.684;2022-11-18T06:05:21;9.95;;;4.43;;
7295;SDS011;40758;54.038;11.684;2022-11-18T06:07:55;3.47;;;2.17;;
7295;SDS011;40758;54.038;11.684;2022-11-18T06:10:27;7.80;;;4.15;;
7295;SDS011;40758;54.038;11.684;2022-11-18T06:13:05;1.77;;;1.67;;
7295;SDS011;40758;54.038;11.684;2022-11-18T06:15:42;5.88;;;3.25;;
7295;SDS011;40758;54.038;11.684;2022-11-18T06:18:15;3.85;;;2.35;;
7295;SDS011;40758;54.038;11.684;2022-11-18T06:20:51;5.03;;;3.40;;
7295;SDS011;40758;54.038;11.684;2022-11-18T06:23:25;7.60;;;4.50;;
7295;SDS011;40758;54.038;11.684;2022-11-18T06:25:59;3.95;;;1.85;;
7295;SDS011;40758;54.038;11.684;2022-11-18T06:28:28;5.72;;;2.03;;
7295;SDS011;40758;54.038;11.684;2022-11-18T06:30:58;7.68;;;4.95;;
7295;SDS011;40758;54.038;11.684;2022-11-18T06:33:27;9.75;;;4.30;;
7295;SDS011;40758;54.038;11.684;2022-11-18T06:35:56;7.05;;;5.28;;
7295;SDS011;40758;54.038;11.684;2022-11-18T06:38:24;6.22;;;3.67;;
7295;SDS011;40758;54.038;11.684;2022-11-18T06:40:59;3.50;;;2.25;;
7295;SDS011;40758;54.038;11.684;2022-11-18T06:43:28;2.35;;;2.15;;
7295;SDS011;40758;54.038;11.684;2022-11-18T06:46:08;3.28;;;1.63;;
7295;SDS011;40758;54.038;11.684;2022-11-18T06:48:58;9.05;;;4.05;;
7295;SDS011;40758;54.038;11.684;2022-11-18T06:51:28;3.50;;;1.73;;
7295;SDS011;40758;54.038;11.684;2022-11-18T06:53:58;11.07;;;5.70;;
7295;SDS011;40758;54.038;11.684;2022-11-18T06:56:37;3.22;;;2.63;;
7295;SDS011;40758;54.038;11.684;2022-11-18T06:59:06;7.65;;;4.43;;
7295;SDS011;40758;54.038;11.684;2022-11-18T07:01:35;5.53;;;2.85;;
7295;SDS011;40758;54.038;11.684;2022-11-18T07:04:07;12.60;;;4.45;;
7295;SDS011;40758;54.038;11.684;2022-11-18T07:06:36;5.40;;;3.00;;
7295;SDS011;40758;54.038;11.684;2022-11-18T07:09:05;1.42;;;1.25;;
7295;SDS011;40758;54.038;11.684;2022-11-18T07:11:35;2.55;;;1.13;;
7295;SDS011;40758;54.038;11.684;2022-11-18T07:14:07;4.65;;;3.63;;
7295;SDS011;40758;54.038;11.684;2022-11-18T07:16:36;2.97;;;2.28;;
7295;SDS011;40758;54.038;11.684;2022-11-18T07:19:08;3.17;;;1.23;;
7295;SDS011;40758;54.038;11.684;2022-11-18T07:21:40;3.63;;;2.35;;
7295;SDS011;40758;54.038;11.684;2022-11-18T07:24:10;8.10;;;4.00;;
7295;SDS011;40758;54.038;11.684;2022-11-18T07:26:44;5.18;;;3.03;;
7295;SDS011;40758;54.038;11.684;2022-11-18T07:29:13;6.88;;;3.05;;
7295;SDS011;40758;54.038;11.684;2022-11-18T07:31:42;5.80;;;2.50;;
7295;SDS011;40758;54.038;11.684;2022-11-18T07:34:11;2.20;;;1.65;;
7295;SDS011;40758;54.038;11.684;2022-11-18T07:36:40;2.08;;;1.98;;
7295;SDS011;40758;54.038;11.684;2022-11-18T07:39:08;1.80;;;1.70;;
7295;SDS011;40758;54.038;11.684;2022-11-18T07:41:38;4.07;;;3.55;;
7295;SDS011;40758;54.038;11.684;2022-11-18T07:44:11;4.22;;;1.83;;
7295;SDS011;40758;54.038;11.684;2022-11-18T07:46:43;1.88;;;1.77;;
7295;SDS011;40758;54.038;11.684;2022-11-18T07:49:13;2.75;;;2.55;;
7295;SDS011;40758;54.038;11.684;2022-11-18T07:51:43;3.53;;;2.88;;
7295;SDS011;40758;54.038;11.684;2022-11-18T07:54:14;2.25;;;1.48;;
7295;SDS011;40758;54.038;11.684;2022-11-18T07:56:45;9.32;;;4.30;;
7295;SDS011;40758;54.038;11.684;2022-11-18T07:59:16;2.15;;;1.38;;
7295;SDS011;40758;54.038;11.684;2022-11-18T08:01:47;7.03;;;3.13;;
7295;SDS011;40758;54.038;11.684;2022-11-18T08:04:16;1.65;;;1.00;;
7295;SDS011;40758;54.038;11.684;2022-11-18T08:06:46;5.40;;;3.67;;
7295;SDS011;40758;54.038;11.684;2022-11-18T08:09:15;7.60;;;2.53;;
7295;SDS011;40758;54.038;11.684;2022-11-18T08:11:46;0.88;;;0.73;;
7295;SDS011;40758;54.038;11.684;2022-11-18T08:14:17;11.45;;;4.95;;
7295;SDS011;40758;54.038;11.684;2022-11-18T08:16:47;4.38;;;2.55;;
7295;SDS011;40758;54.038;11.684;2022-11-18T08:19:18;2.00;;;1.40;;
7295;SDS011;40758;54.038;11.684;2022-11-18T08:21:48;6.07;;;3.83;;
7295;SDS011;40758;54.038;11.684;2022-11-18T08:24:20;7.75;;;4.80;;
7295;SDS011;40758;54.038;11.684;2022-11-18T08:26:50;2.28;;;1.98;;
7295;SDS011;40758;54.038;11.684;2022-11-18T08:29:21;4.43;;;2.65;;
7295;SDS011;40758;54.038;11.684;2022-11-18T08:31:51;4.40;;;1.40;;
7295;SDS011;40758;54.038;11.684;2022-11-18T08:34:20;3.63;;;2.92;;
7295;SDS011;40758;54.038;11.684;2022-11-18T08:36:49;7.20;;;3.08;;
7295;SDS011;40758;54.038;11.684;2022-11-18T08:39:21;4.53;;;2.25;;
7295;SDS011;40758;54.038;11.684;2022-11-18T08:41:49;6.45;;;2.55;;
7295;SDS011;40758;54.038;11.684;2022-11-18T08:44:19;3.80;;;2.50;;
7295;SDS011;40758;54.038;11.684;2022-11-18T08:46:49;3.10;;;2.80;;
7295;SDS011;40758;54.038;11.684;2022-11-18T08:49:17;5.75;;;2.75;;
7295;SDS011;40758;54.038;11.684;2022-11-18T08:51:47;4.15;;;2.63;;
7295;SDS011;40758;54.038;11.684;2022-11-18T08:54:15;2.00;;;1.17;;
7295;SDS011;40758;54.038;11.684;2022-11-18T08:56:59;7.05;;;3.05;;
7295;SDS011;40758;54.038;11.684;2022-11-18T08:59:31;7.10;;;1.40;;
7295;SDS011;40758;54.038;11.684;2022-11-18T09:02:00;2.72;;;1.73;;
7295;SDS011;40758;54.038;11.684;2022-11-18T09:04:29;5.78;;;3.10;;
7295;SDS011;40758;54.038;11.684;2022-11-18T09:06:58;2.42;;;1.88;;
7295;SDS011;40758;54.038;11.684;2022-11-18T09:09:28;4.90;;;2.42;;
7295;SDS011;40758;54.038;11.684;2022-11-18T09:11:57;1.48;;;1.23;;
7295;SDS011;40758;54.038;11.684;2022-11-18T09:14:25;3.63;;;2.13;;
7295;SDS011;40758;54.038;11.684;2022-11-18T09:17:17;2.45;;;1.55;;
7295;SDS011;40758;54.038;11.684;2022-11-18T09:19:46;2.97;;;1.13;;
7295;SDS011;40758;54.038;11.684;2022-11-18T09:22:14;3.83;;;2.08;;
7295;SDS011;40758;54.038;11.684;2022-11-18T09:24:43;0.47;;;0.47;;
7295;SDS011;40758;54.038;11.684;2022-11-18T09:27:12;2.00;;;1.50;;
7295;SDS011;40758;54.038;11.684;2022-11-18T09:29:43;2.17;;;1.02;;
7295;SDS011;40758;54.038;11.684;2022-11-18T09:32:12;1.15;;;1.00;;
7295;SDS011;40758;54.038;11.684;2022-11-18T09:34:45;5.53;;;2.78;;
7295;SDS011;40758;54.038;11.684;2022-11-18T09:37:14;1.13;;;0.55;;
7295;SDS011;40758;54.038;11.684;2022-11-18T09:39:43;4.53;;;2.33;;
7295;SDS011;40758;54.038;11.684;2022-11-18T09:42:16;3.72;;;1.85;;
7295;SDS011;40758;54.038;11.684;2022-11-18T09:45:06;0.60;;;0.60;;
7295;SDS011;40758;54.038;11.684;2022-11-18T09:47:51;2.70;;;1.55;;
7295;SDS011;40758;54.038;11.684;2022-11-18T09:50:26;0.73;;;0.43;;
7295;SDS011;40758;54.038;11.684;2022-11-18T09:53:17;2.90;;;1.98;;
7295;SDS011;40758;54.038;11.684;2022-11-18T09:55:49;3.15;;;1.85;;
7295;SDS011;40758;54.038;11.684;2022-11-18T09:58:20;1.45;;;1.10;;
7295;SDS011;40758;54.038;11.684;2022-11-18T10:00:58;1.17;;;0.73;;
7295;SDS011;40758;54.038;11.684;2022-11-18T10:03:28;0.00;;;0.00;;
7295;SDS011;40758;54.038;11.684;2022-11-18T10:06:03;1.23;;;0.57;;
7295;SDS011;40758;54.038;11.684;2022-11-18T10:08:54;2.30;;;0.80;;
7295;SDS011;40758;54.038;11.684;2022-11-18T10:11:39;1.33;;;0.80;;
7295;SDS011;40758;54.038;11.684;2022-11-18T10:14:20;3.22;;;0.50;;
7295;SDS011;40758;54.038;11.684;2022-11-18T10:17:07;1.42;;;0.73;;
7295;SDS011;40758;54.038;11.684;2022-11-18T10:19:53;0.60;;;0.60;;
7295;SDS011;40758;54.038;11.684;2022-11-18T10:22:41;3.47;;;0.98;;
7295;SDS011;40758;54.038;11.684;2022-11-18T10:25:19;2.88;;;1.50;;
7295;SDS011;40758;54.038;11.684;2022-11-18T10:27:49;2.88;;;1.45;;
7295;SDS011;40758;54.038;11.684;2022-11-18T10:30:22;0.28;;;0.28;;
7295;SDS011;40758;54.038;11.684;2022-11-18T10:32:58;0.45;;;0.45;;
7295;SDS011;40758;54.038;11.684;2022-11-18T10:35:43;0.40;;;0.40;;
7295;SDS011;40758;54.038;11.684;2022-11-18T10:38:16;1.10;;;1.10;;
7295;SDS011;40758;54.038;11.684;2022-11-18T10:40:55;4.70;;;1.52;;
7295;SDS011;40758;54.038;11.684;2022-11-18T10:43:41;1.90;;;1.23;;
7295;SDS011;40758;54.038;11.684;2022-11-18T10:46:16;0.30;;;0.30;;
7295;SDS011;40758;54.038;11.684;2022-11-18T10:49:09;2.35;;;1.05;;
7295;SDS011;40758;54.038;11.684;2022-11-18T10:51:43;2.72;;;0.65;;
7295;SDS011;40758;54.038;11.684;2022-11-18T10:54:18;2.40;;;1.20;;
7295;SDS011;40758;54.038;11.684;2022-11-18T10:56:49;1.42;;;1.10;;
7295;SDS011;40758;54.038;11.684;2022-11-18T10:59:27;1.73;;;1.52;;
7295;SDS011;40758;54.038;11.684;2022-11-18T11:02:00;1.33;;;1.23;;
7295;SDS011;40758;54.038;11.684;2022-11-18T11:04:43;1.50;;;1.00;;
7295;SDS011;40758;54.038;11.684;2022-11-18T11:07:22;0.10;;;0.10;;
7295;SDS011;40758;54.038;11.684;2022-11-18T11:10:12;1.30;;;1.15;;
7295;SDS011;40758;54.038;11.684;2022-11-18T11:12:50;2.63;;;1.27;;
7295;SDS011;40758;54.038;11.684;2022-11-18T11:15:27;1.02;;;0.35;;
7295;SDS011;40758;54.038;11.684;2022-11-18T11:18:05;3.78;;;1.10;;
7295;SDS011;40758;54.038;11.684;2022-11-18T11:21:06;0.40;;;0.40;;
7295;SDS011;40758;54.038;11.684;2022-11-18T11:23:39;0.65;;;0.32;;
7295;SDS011;40758;54.038;11.684;2022-11-18T11:26:14;0.55;;;0.40;;
7295;SDS011;40758;54.038;11.684;2022-11-18T11:29:16;0.50;;;0.50;;
7295;SDS011;40758;54.038;11.684;2022-11-18T11:32:04;1.08;;;0.80;;
7295;SDS011;40758;54.038;11.684;2022-11-18T11:34:49;1.52;;;0.70;;
7295;SDS011;40758;54.038;11.684;2022-11-18T11:37:32;1.55;;;0.90;;
7295;SDS011;40758;54.038;11.684;2022-11-18T11:40:18;2.78;;;1.33;;
7295;SDS011;40758;54.038;11.684;2022-11-18T11:43:09;1.20;;;0.82;;
7295;SDS011;40758;54.038;11.684;2022-11-18T11:45:58;0.63;;;0.40;;
7295;SDS011;40758;54.038;11.684;2022-11-18T11:48:57;1.27;;;0.90;;
7295;SDS011;40758;54.038;11.684;2022-11-18T11:51:46;0.80;;;0.70;;
7295;SDS011;40758;54.038;11.684;2022-11-18T11:54:28;1.85;;;0.68;;
7295;SDS011;40758;54.038;11.684;2022-11-18T11:57:16;1.05;;;0.75;;
7295;SDS011;40758;54.038;11.684;2022-11-18T12:00:04;1.48;;;0.80;;
7295;SDS011;40758;54.038;11.684;2022-11-18T12:02:47;1.02;;;0.55;;
7295;SDS011;40758;54.038;11.684;2022-11-18T12:05:42;0.77;;;0.52;;
7295;SDS011;40758;54.038;11.684;2022-11-18T12:08:11;1.75;;;0.52;;
7295;SDS011;40758;54.038;11.684;2022-11-18T12:10:45;1.23;;;0.90;;
7295;SDS011;40758;54.038;11.684;2022-11-18T12:13:25;4.35;;;1.23;;
7295;SDS011;40758;54.038;11.684;2022-11-18T12:16:23;0.95;;;0.60;;
7295;SDS011;40758;54.038;11.684;2022-11-18T12:18:58;0.45;;;0.32;;
7295;SDS011;40758;54.038;11.684;2022-11-18T12:21:51;2.13;;;0.63;;
7295;SDS011;40758;54.038;11.684;2022-11-18T12:24:30;1.33;;;1.23;;
7295;SDS011;40758;54.038;11.684;2022-11-18T12:27:05;1.95;;;0.68;;
7295;SDS011;40758;54.038;11.684;2022-11-18T12:29:53;0.38;;;0.38;;
7295;SDS011;40758;54.038;11.684;2022-11-18T12:32:32;0.90;;;0.52;;
7295;SDS011;40758;54.038;11.684;2022-11-18T12:35:21;0.60;;;0.22;;
7295;SDS011;40758;54.038;11.684;2022-11-18T12:38:02;1.70;;;1.20;;
7295;SDS011;40758;54.038;11.684;2022-11-18T12:40:35;1.08;;;0.50;;
7295;SDS011;40758;54.038;11.684;2022-11-18T12:46:48;0.45;;;0.43;;
7295;SDS011;40758;54.038;11.684;2022-11-18T12:52:53;1.77;;;0.98;;
7295;SDS011;40758;54.038;11.684;2022-11-18T12:55:31;6.15;;;0.45;;
7295;SDS011;40758;54.038;11.684;2022-11-18T12:58:19;0.57;;;0.40;;
7295;SDS011;40758;54.038;11.684;2022-11-18T13:01:02;2.17;;;0.70;;
7295;SDS011;40758;54.038;11.684;2022-11-18T13:03:34;0.35;;;0.30;;
7295;SDS011;40758;54.038;11.684;2022-11-18T13:06:11;1.20;;;0.73;;
7295;SDS011;40758;54.038;11.684;2022-11-18T13:08:54;0.10;;;0.10;;
7295;SDS011;40758;54.038;11.684;2022-11-18T13:11:27;0.30;;;0.30;;
7295;SDS011;40758;54.038;11.684;2022-11-18T13:14:14;7.97;;;0.68;;
7295;SDS011;40758;54.038;11.684;2022-11-18T13:20:19;0.28;;;0.28;;
7295;SDS011;40758;54.038;11.684;2022-11-18T13:22:54;0.45;;;0.45;;
7295;SDS011;40758;54.038;11.684;2022-11-18T13:25:43;0.22;;;0.08;;
7295;SDS011;40758;54.038;11.684;2022-11-18T13:28:17;0.25;;;0.10;;
7295;SDS011;40758;54.038;11.684;2022-11-18T13:30:59;0.00;;;0.00;;
7295;SDS011;40758;54.038;11.684;2022-11-18T13:33:39;0.17;;;0.17;;
7295;SDS011;40758;54.038;11.684;2022-11-18T13:36:14;3.40;;;1.15;;
7295;SDS011;40758;54.038;11.684;2022-11-18T13:38:56;1.45;;;0.70;;
7295;SDS011;40758;54.038;11.684;2022-11-18T13:41:31;0.25;;;0.25;;
7295;SDS011;40758;54.038;11.684;2022-11-18T13:46:53;0.00;;;0.00;;
7295;SDS011;40758;54.038;11.684;2022-11-18T13:49:33;1.05;;;0.63;;
7295;SDS011;40758;54.038;11.684;2022-11-18T13:52:18;0.93;;;0.45;;
7295;SDS011;40758;54.038;11.684;2022-11-18T13:55:06;0.35;;;0.30;;
7295;SDS011;40758;54.038;11.684;2022-11-18T13:57:46;0.38;;;0.38;;
7295;SDS011;40758;54.038;11.684;2022-11-18T14:00:21;0.17;;;0.17;;
7295;SDS011;40758;54.038;11.684;2022-11-18T14:02:55;0.80;;;0.65;;
7295;SDS011;40758;54.038;11.684;2022-11-18T14:05:32;0.28;;;0.28;;
7295;SDS011;40758;54.038;11.684;2022-11-18T14:08:02;0.30;;;0.30;;
7295;SDS011;40758;54.038;11.684;2022-11-18T14:10:44;0.05;;;0.05;;
7295;SDS011;40758;54.038;11.684;2022-11-18T14:13:17;0.00;;;0.00;;
7295;SDS011;40758;54.038;11.684;2022-11-18T14:15:53;0.47;;;0.47;;
7295;SDS011;40758;54.038;11.684;2022-11-18T14:18:29;0.30;;;0.30;;
7295;SDS011;40758;54.038;11.684;2022-11-18T14:21:01;0.22;;;0.20;;
7295;SDS011;40758;54.038;11.684;2022-11-18T14:23:35;0.75;;;0.30;;
7295;SDS011;40758;54.038;11.684;2022-11-18T14:26:10;0.22;;;0.22;;
7295;SDS011;40758;54.038;11.684;2022-11-18T14:28:39;0.93;;;0.47;;
7295;SDS011;40758;54.038;11.684;2022-11-18T14:31:22;0.35;;;0.22;;
7295;SDS011;40758;54.038;11.684;2022-11-18T14:34:15;0.73;;;0.20;;
7295;SDS011;40758;54.038;11.684;2022-11-18T14:36:50;0.70;;;0.30;;
7295;SDS011;40758;54.038;11.684;2022-11-18T14:39:23;0.10;;;0.10;;
7295;SDS011;40758;54.038;11.684;2022-11-18T14:41:58;0.13;;;0.13;;
7295;SDS011;40758;54.038;11.684;2022-11-18T14:44:28;0.65;;;0.30;;
7295;SDS011;40758;54.038;11.684;2022-11-18T14:46:58;0.20;;;0.20;;
7295;SDS011;40758;54.038;11.684;2022-11-18T14:49:30;0.30;;;0.25;;
7295;SDS011;40758;54.038;11.684;2022-11-18T14:51:59;0.10;;;0.10;;
7295;SDS011;40758;54.038;11.684;2022-11-18T14:54:30;0.47;;;0.22;;
7295;SDS011;40758;54.038;11.684;2022-11-18T14:57:02;0.63;;;0.10;;
7295;SDS011;40758;54.038;11.684;2022-11-18T14:59:32;0.93;;;0.88;;
7295;SDS011;40758;54.038;11.684;2022-11-18T15:02:04;0.10;;;0.10;;
7295;SDS011;40758;54.038;11.684;2022-11-18T15:04:39;0.10;;;0.10;;
7295;SDS011;40758;54.038;11.684;2022-11-18T15:07:09;0.00;;;0.00;;
7295;SDS011;40758;54.038;11.684;2022-11-18T15:09:49;0.00;;;0.00;;
7295;SDS011;40758;54.038;11.684;2022-11-18T15:12:20;0.65;;;0.65;;
7295;SDS011;40758;54.038;11.684;2022-11-18T15:14:51;0.08;;;0.08;;
7295;SDS011;40758;54.038;11.684;2022-11-18T15:17:20;1.75;;;0.95;;
7295;SDS011;40758;54.038;11.684;2022-11-18T15:19:48;0.10;;;0.10;;
7295;SDS011;40758;54.038;11.684;2022-11-18T15:22:17;0.22;;;0.22;;
7295;SDS011;40758;54.038;11.684;2022-11-18T15:24:46;0.15;;;0.13;;
7295;SDS011;40758;54.038;11.684;2022-11-18T15:27:16;2.08;;;1.33;;
7295;SDS011;40758;54.038;11.684;2022-11-18T15:29:46;0.00;;;0.00;;
7295;SDS011;40758;54.038;11.684;2022-11-18T15:32:15;0.00;;;0.00;;
7295;SDS011;40758;54.038;11.684;2022-11-18T15:34:44;0.22;;;0.08;;
7295;SDS011;40758;54.038;11.684;2022-11-18T15:37:14;0.00;;;0.00;;
7295;SDS011;40758;54.038;11.684;2022-11-18T15:39:43;0.47;;;0.47;;
7295;SDS011;40758;54.038;11.684;2022-11-18T15:42:16;0.00;;;0.00;;
7295;SDS011;40758;54.038;11.684;2022-11-18T15:47:19;0.13;;;0.13;;